Zprávy METAR z letišť v České republice

LKMT - Ostrava Mošnov, Česká republika
Vzdálenost od této stanice: V 12km
Aktualizováno: 18.10.2018 16:30
 
Teplota vzduchu: 16°C
Vítr: SV 6 km/h
Rosný bod: 12°C
Vlhkost vzduchu: 77%
Tlak vzduchu: 1019 hPa
Oblačnost: skoro jasno
Viditelnost: 10 km
Detaily oblačnosti: skoro jasno 610 m
2018/10/18 14:30 LKMT 181430Z 04003KT 9999 FEW020 16/12 Q1019 NOSIG
LKTB - Brno Tuřany, Česká republika
Vzdálenost od této stanice: JZ 110km
Aktualizováno: 18.10.2018 16:30
 
Teplota vzduchu: 19°C
Vítr: V 11 km/h
Rosný bod: 9°C
Vlhkost vzduchu: 52%
Tlak vzduchu: 1018 hPa
Stav počasí: Jasno
Oblačnost: jasná obloha
Viditelnost: více než 10 km
2018/10/18 14:30 LKTB 181430Z 10006KT CAVOK 19/09 Q1018 NOSIG
 
LKCV - Čáslav, Česká republika
Vzdálenost od této stanice: Z 186km
Aktualizováno: 18.10.2018 16:00
 
Teplota vzduchu: 18°C
Vítr: proměnlivý 4 km/h
Rosný bod: 8°C
Vlhkost vzduchu: 52%
Tlak vzduchu: 1019 hPa
Stav počasí: Jasno
Oblačnost: jasná obloha
Viditelnost: více než 10 km
2018/10/18 14:00 LKCV 181400Z VRB02KT CAVOK 18/08 Q1019 NOSIG
LKNA - Náměšť n. Osl., Česká republika
Vzdálenost od této stanice: ZJZ 144km
Aktualizováno: 18.10.2018 16:00
 
Teplota vzduchu: 18°C
Vítr: proměnlivý 2 km/h
Rosný bod: 8°C
Vlhkost vzduchu: 52%
Tlak vzduchu: 1018 hPa
Stav počasí: Jasno
Oblačnost: jasná obloha
Viditelnost: více než 10 km
2018/10/18 14:00 LKNA 181400Z VRB01KT CAVOK 18/08 Q1018 NOSIG
 
LKPR - Praha Ruzyně, Česká republika
Vzdálenost od této stanice: ZSZ 268km
Aktualizováno: 18.10.2018 16:30
 
Teplota vzduchu: 17°C
Vítr: SSZ 11 km/h
Rosný bod: 9°C
Vlhkost vzduchu: 59%
Tlak vzduchu: 1019 hPa
Oblačnost: oblačno
Viditelnost: 8 km
2018/10/18 14:30 LKPR 181430Z 34006KT 290V360 8000 NSC 17/09 Q1019 NOSIG
LKKV - Karlovy Vary, Česká republika
Vzdálenost od této stanice: ZSZ 365km
Aktualizováno: 18.10.2018 16:30
 
Teplota vzduchu: 16°C
Vítr: S 13 km/h
Rosný bod: 8°C
Vlhkost vzduchu: 59%
Tlak vzduchu: 1020 hPa
Oblačnost: oblačno
Viditelnost: 10 km
Detaily oblačnosti: oblačno 1219 m
2018/10/18 14:30 LKKV 181430Z 36007KT 310V040 9999 SCT040 16/08 Q1020
 
LKPD - Pardubice, Česká republika
Vzdálenost od této stanice: ZSZ 163km
Aktualizováno: 18.10.2018 16:00
 
Teplota vzduchu: 19°C
Vítr: JZ 4 km/h
Rosný bod: 8°C
Vlhkost vzduchu: 49%
Tlak vzduchu: 1019 hPa
Stav počasí: Jasno
Oblačnost: jasná obloha
Viditelnost: více než 10 km
2018/10/18 14:00 LKPD 181400Z 23002KT CAVOK 19/08 Q1019
LKKB - Praha Kbely, Česká republika
Vzdálenost od této stanice: Z 249km
Aktualizováno: 18.10.2018 16:00
 
Teplota vzduchu: 17°C
Vítr: SSZ 9 km/h
Rosný bod: 9°C
Vlhkost vzduchu: 59%
Tlak vzduchu: 1019 hPa
Oblačnost: oblačno
Viditelnost: 9 km
2018/10/18 14:00 LKKB 181400Z 33005KT 300V010 9000 NSC 17/09 Q1019 NOSIG
 
LKLN - Plzeň Líně, Česká republika
Vzdálenost od této stanice: Z 337km
Aktualizováno: 18.10.2018 16:00
 
Teplota vzduchu: 19°C
Vítr: proměnlivý 4 km/h
Rosný bod: 8°C
Vlhkost vzduchu: 49%
Tlak vzduchu: 1020 hPa
Stav počasí: Jasno
Oblačnost: jasná obloha
Viditelnost: více než 10 km
2018/10/18 14:00 LKLN 181400Z AUTO VRB02KT CAVOK 19/08 Q1020
LKVO - Vodochody, Česká republika
Vzdálenost od této stanice: ZSZ 261km
Aktualizováno: 17.10.2018 17:00
Není aktuální
 
Teplota vzduchu: 18°C
Vítr: V 7 km/h
Rosný bod: 8°C
Vlhkost vzduchu: 52%
Tlak vzduchu: 1019 hPa
Stav počasí: Jasno
Oblačnost: jasná obloha
Viditelnost: více než 10 km
2018/10/17 15:00 LKVO 171500Z 10004KT CAVOK 18/08 Q1019

Metar display script od Saratoga-Weather.org
upravil a přeložil Miloš Jiřík